createdAt,value
2023-01-29T00:01:16.177Z,3.60
2023-01-29T00:06:39.521Z,4.30
2023-01-29T00:12:01.999Z,3.30
2023-01-29T00:17:24.362Z,4.33
2023-01-29T00:22:46.731Z,4.17
2023-01-29T00:28:08.966Z,4.20
2023-01-29T00:33:31.494Z,4.53
2023-01-29T00:39:02.741Z,4.63
2023-01-29T00:44:44.566Z,4.20
2023-01-29T00:50:14.074Z,4.23
2023-01-29T00:55:36.327Z,5.07
2023-01-29T01:00:58.672Z,5.50
2023-01-29T01:06:20.896Z,4.70
2023-01-29T01:11:43.304Z,5.20
2023-01-29T01:17:05.481Z,5.27
2023-01-29T01:22:27.925Z,5.30
2023-01-29T01:27:56.412Z,5.13
2023-01-29T01:33:18.623Z,5.00
2023-01-29T01:38:44.533Z,6.03
2023-01-29T01:44:07.192Z,5.40
2023-01-29T01:49:29.764Z,7.07
2023-01-29T01:54:52.386Z,5.73
2023-01-29T02:00:18.430Z,6.63
2023-01-29T02:06:00.651Z,5.90
2023-01-29T02:11:23.150Z,6.53
2023-01-29T02:16:46.630Z,6.50
2023-01-29T02:22:44.401Z,5.80
2023-01-29T02:28:18.799Z,6.53
2023-01-29T02:33:46.703Z,6.13
2023-01-29T02:39:15.786Z,5.80
2023-01-29T02:44:44.820Z,6.80
2023-01-29T02:50:26.644Z,6.57
2023-01-29T02:55:55.267Z,6.97
2023-01-29T03:01:30.428Z,6.80
2023-01-29T03:07:01.551Z,6.97
2023-01-29T03:12:34.190Z,7.10
2023-01-29T03:18:17.904Z,7.37
2023-01-29T03:23:59.372Z,7.87
2023-01-29T03:29:40.503Z,6.97
2023-01-29T03:35:07.443Z,7.53
2023-01-29T03:40:41.654Z,7.43
2023-01-29T03:47:04.854Z,7.53
2023-01-29T03:52:47.864Z,8.37
2023-01-29T03:58:29.180Z,8.07
2023-01-29T04:04:15.111Z,6.90
2023-01-29T04:09:56.511Z,7.87
2023-01-29T04:15:22.411Z,7.60
2023-01-29T04:20:46.806Z,7.50
2023-01-29T04:26:32.239Z,8.03
2023-01-29T04:32:16.902Z,7.47
2023-01-29T04:38:02.055Z,7.20
2023-01-29T04:43:35.490Z,7.43
2023-01-29T04:49:15.666Z,7.13
2023-01-29T04:54:59.587Z,7.60
2023-01-29T05:00:30.995Z,8.70
2023-01-29T05:05:55.859Z,7.90
2023-01-29T05:11:21.518Z,7.67
2023-01-29T05:16:47.783Z,8.23
2023-01-29T05:22:15.537Z,8.73
2023-01-29T05:27:56.608Z,7.67
2023-01-29T05:33:30.617Z,7.90
2023-01-29T05:38:52.773Z,9.27
2023-01-29T05:44:15.473Z,9.90
2023-01-29T05:49:38.853Z,9.00
2023-01-29T05:55:01.028Z,9.60
2023-01-29T06:00:23.450Z,9.13
2023-01-29T06:05:45.957Z,9.03
2023-01-29T06:11:10.532Z,9.83
2023-01-29T06:16:33.216Z,10.77
2023-01-29T06:21:55.584Z,9.60
2023-01-29T06:27:17.742Z,10.03
2023-01-29T06:32:40.210Z,9.10
2023-01-29T06:38:02.525Z,10.37
2023-01-29T06:43:25.184Z,10.17
2023-01-29T06:48:47.743Z,12.47
2023-01-29T06:54:10.828Z,10.03
2023-01-29T06:59:33.319Z,10.30
2023-01-29T07:04:55.944Z,11.03
2023-01-29T07:10:18.538Z,11.90
2023-01-29T07:15:41.702Z,11.53
2023-01-29T07:21:06.869Z,10.17
2023-01-29T07:26:29.403Z,10.57
2023-01-29T07:31:52.018Z,9.70
2023-01-29T07:37:14.469Z,10.50
2023-01-29T07:42:44.091Z,10.53
2023-01-29T07:48:09.748Z,10.80
2023-01-29T07:53:32.150Z,11.37
2023-01-29T07:58:54.647Z,11.50
2023-01-29T08:04:17.129Z,10.27
2023-01-29T08:09:39.395Z,12.13
2023-01-29T08:15:01.699Z,11.67
2023-01-29T08:20:24.295Z,11.10
2023-01-29T08:25:46.793Z,11.47
2023-01-29T08:31:22.892Z,11.63
2023-01-29T08:36:45.211Z,11.63
2023-01-29T08:42:07.823Z,11.37
2023-01-29T08:47:30.167Z,10.60
2023-01-29T08:52:59.060Z,11.60
2023-01-29T08:58:21.523Z,11.43
2023-01-29T09:03:44.744Z,11.83
2023-01-29T09:09:07.168Z,11.77
2023-01-29T09:14:29.629Z,11.93
2023-01-29T09:19:53.198Z,11.43
2023-01-29T09:25:15.892Z,11.57
2023-01-29T09:30:38.761Z,12.37
2023-01-29T09:36:03.779Z,10.20
2023-01-29T09:41:38.171Z,14.03
2023-01-29T09:47:05.119Z,12.23
2023-01-29T09:52:35.812Z,11.93
2023-01-29T09:58:11.866Z,12.47
2023-01-29T10:03:42.434Z,13.13
2023-01-29T10:09:35.717Z,12.47
2023-01-29T10:15:22.425Z,12.17
2023-01-29T10:21:08.866Z,12.47
2023-01-29T10:26:33.439Z,13.33
2023-01-29T10:32:05.202Z,11.50
2023-01-29T10:37:42.685Z,12.83
2023-01-29T10:43:24.758Z,13.33
2023-01-29T10:49:24.733Z,12.97
2023-01-29T10:54:59.465Z,12.37
2023-01-29T11:00:30.544Z,11.60
2023-01-29T11:05:58.892Z,10.87
2023-01-29T11:11:26.529Z,12.03
2023-01-29T11:16:49.206Z,11.30
2023-01-29T11:22:17.949Z,12.27
2023-01-29T11:27:45.447Z,13.27
2023-01-29T11:33:26.426Z,10.90
2023-01-29T11:39:10.695Z,10.80
2023-01-29T11:44:33.270Z,11.40
2023-01-29T11:49:58.044Z,11.57
2023-01-29T11:55:23.826Z,11.30
2023-01-29T12:00:50.915Z,10.73
2023-01-29T12:06:25.466Z,10.30
2023-01-29T12:11:47.804Z,10.27
2023-01-29T12:17:19.884Z,9.30
2023-01-29T12:23:20.156Z,9.10
2023-01-29T12:28:42.218Z,9.57
2023-01-29T12:34:27.696Z,9.07
2023-01-29T12:39:52.079Z,8.10
2023-01-29T12:45:23.837Z,7.90
2023-01-29T12:50:47.883Z,9.17
2023-01-29T12:56:20.286Z,8.30
2023-01-29T13:01:52.600Z,7.83
2023-01-29T13:07:24.938Z,7.83
2023-01-29T13:13:03.857Z,8.30
2023-01-29T13:18:32.351Z,7.13
2023-01-29T13:24:05.582Z,8.17
2023-01-29T13:29:31.642Z,7.97
2023-01-29T13:34:57.974Z,8.00
2023-01-29T13:40:30.307Z,7.53
2023-01-29T13:45:54.703Z,7.87
2023-01-29T13:51:22.015Z,7.83
2023-01-29T13:56:56.274Z,7.80
2023-01-29T14:02:30.069Z,8.10
2023-01-29T14:07:52.471Z,7.53
2023-01-29T14:13:23.490Z,8.37
2023-01-29T14:18:59.095Z,7.60
2023-01-29T14:24:29.442Z,7.10
2023-01-29T14:29:58.808Z,8.10
2023-01-29T14:35:28.301Z,8.07
2023-01-29T14:41:02.294Z,7.10
2023-01-29T14:46:33.684Z,9.37
2023-01-29T14:51:56.733Z,7.70
2023-01-29T14:57:20.002Z,7.63
2023-01-29T15:02:45.024Z,7.53
2023-01-29T15:08:18.104Z,7.67
2023-01-29T15:14:19.092Z,8.70
2023-01-29T15:19:50.955Z,9.03
2023-01-29T15:25:15.656Z,7.77
2023-01-29T15:30:39.519Z,8.53
2023-01-29T15:36:07.680Z,8.30
2023-01-29T15:41:30.494Z,9.43
2023-01-29T15:47:01.556Z,9.23
2023-01-29T15:52:28.910Z,8.93
2023-01-29T15:57:51.623Z,10.07
2023-01-29T16:03:15.659Z,9.47
2023-01-29T16:08:40.126Z,9.43
2023-01-29T16:14:03.558Z,9.83
2023-01-29T16:19:29.129Z,9.47
2023-01-29T16:24:53.299Z,9.90
2023-01-29T16:30:18.771Z,9.77
2023-01-29T16:35:42.095Z,9.73
2023-01-29T16:41:13.174Z,10.83
2023-01-29T16:46:37.789Z,10.87
2023-01-29T16:52:23.092Z,10.77
2023-01-29T16:57:50.334Z,11.57
2023-01-29T17:03:15.045Z,12.40
2023-01-29T17:08:38.678Z,11.10
2023-01-29T17:14:01.138Z,11.87
2023-01-29T17:19:25.383Z,11.17
2023-01-29T17:24:51.463Z,10.37
2023-01-29T17:30:15.864Z,11.43
2023-01-29T17:35:38.483Z,10.97
2023-01-29T17:41:07.564Z,12.53
2023-01-29T17:46:30.071Z,11.37
2023-01-29T17:51:54.174Z,11.23
2023-01-29T17:57:16.728Z,10.50
2023-01-29T18:02:38.770Z,12.23
2023-01-29T18:08:02.391Z,11.27
2023-01-29T18:13:25.021Z,11.63
2023-01-29T18:18:47.497Z,11.50
2023-01-29T18:24:09.795Z,11.57
2023-01-29T18:29:32.029Z,10.77
2023-01-29T18:34:54.699Z,11.13
2023-01-29T18:40:17.640Z,10.57
2023-01-29T18:45:40.026Z,9.77
2023-01-29T18:51:02.427Z,9.80
2023-01-29T18:56:24.653Z,11.33
2023-01-29T19:01:47.300Z,10.47
2023-01-29T19:07:10.182Z,10.30
2023-01-29T19:12:34.410Z,9.53
2023-01-29T19:17:59.185Z,9.07
2023-01-29T19:23:22.447Z,8.63
2023-01-29T19:28:45.114Z,10.13
2023-01-29T19:34:08.189Z,9.83
2023-01-29T19:39:33.813Z,10.70
2023-01-29T19:44:55.916Z,9.97
2023-01-29T19:50:18.331Z,9.87
2023-01-29T19:55:40.995Z,9.63
2023-01-29T20:01:06.779Z,9.23
2023-01-29T20:06:31.132Z,9.30
2023-01-29T20:11:53.778Z,9.70
2023-01-29T20:17:16.976Z,10.37
2023-01-29T20:22:39.400Z,8.70
2023-01-29T20:28:02.256Z,8.37
2023-01-29T20:33:25.459Z,9.00
2023-01-29T20:38:48.201Z,7.60
2023-01-29T20:44:10.609Z,7.60
2023-01-29T20:49:33.117Z,8.33
2023-01-29T20:54:55.758Z,8.20
2023-01-29T21:00:19.739Z,7.67
2023-01-29T21:05:42.562Z,8.30
2023-01-29T21:11:05.661Z,8.07
2023-01-29T21:16:28.445Z,6.90
2023-01-29T21:21:50.940Z,7.40
2023-01-29T21:27:12.971Z,6.90
2023-01-29T21:32:36.093Z,7.27
2023-01-29T21:37:58.614Z,7.57
2023-01-29T21:43:20.882Z,7.73
2023-01-29T21:48:43.287Z,7.03
2023-01-29T21:54:05.678Z,6.17
2023-01-29T21:59:27.934Z,6.67
2023-01-29T22:04:52.461Z,7.07
2023-01-29T22:10:17.360Z,7.00
2023-01-29T22:15:40.140Z,5.70
2023-01-29T22:21:03.042Z,7.27
2023-01-29T22:26:25.239Z,7.10
2023-01-29T22:31:47.866Z,6.53
2023-01-29T22:37:10.082Z,7.30
2023-01-29T22:42:32.449Z,6.50
2023-01-29T22:47:56.542Z,7.43
2023-01-29T22:53:18.893Z,6.33
2023-01-29T22:58:41.308Z,6.43
2023-01-29T23:04:03.543Z,7.27
2023-01-29T23:09:25.758Z,7.20
2023-01-29T23:14:47.949Z,6.67
2023-01-29T23:20:10.866Z,7.10
2023-01-29T23:25:52.072Z,7.13
2023-01-29T23:31:14.566Z,6.60
2023-01-29T23:36:37.288Z,7.37
2023-01-29T23:41:59.998Z,7.17
2023-01-29T23:47:22.286Z,6.83
2023-01-29T23:52:44.933Z,7.60
2023-01-29T23:58:07.261Z,7.43
